createdAt,value
2023-02-09T00:01:19.265Z,101169.53
2023-02-09T00:03:46.430Z,101177.88
2023-02-09T00:06:16.347Z,101160.69
2023-02-09T00:08:43.268Z,101167.53
2023-02-09T00:11:15.278Z,101174.13
2023-02-09T00:13:43.823Z,101166.41
2023-02-09T00:16:10.954Z,101172.38
2023-02-09T00:18:37.763Z,101165.53
2023-02-09T00:21:11.243Z,101166.00
2023-02-09T00:23:40.925Z,101157.47
2023-02-09T00:26:11.836Z,101157.16
2023-02-09T00:28:38.671Z,101146.09
2023-02-09T00:31:10.799Z,101148.22
2023-02-09T00:33:37.836Z,101148.34
2023-02-09T00:36:09.390Z,101139.94
2023-02-09T00:38:36.657Z,101137.28
2023-02-09T00:41:03.957Z,101139.69
2023-02-09T00:43:31.012Z,101141.38
2023-02-09T00:45:57.738Z,101133.97
2023-02-09T00:48:24.918Z,101124.59
2023-02-09T00:50:52.696Z,101118.75
2023-02-09T00:53:21.434Z,101120.50
2023-02-09T00:55:49.064Z,101122.72
2023-02-09T00:58:15.972Z,101123.84
2023-02-09T01:00:42.985Z,101128.91
2023-02-09T01:03:10.399Z,101125.59
2023-02-09T01:05:41.584Z,101119.00
2023-02-09T01:08:08.544Z,101119.00
2023-02-09T01:10:35.474Z,101122.28
2023-02-09T01:13:02.225Z,101118.31
2023-02-09T01:15:29.073Z,101118.31
2023-02-09T01:17:55.835Z,101115.88
2023-02-09T01:20:22.710Z,101126.47
2023-02-09T01:22:49.449Z,101123.41
2023-02-09T01:25:16.227Z,101124.06
2023-02-09T01:27:42.945Z,101118.09
2023-02-09T01:30:10.432Z,101117.22
2023-02-09T01:32:37.434Z,101109.69
2023-02-09T01:35:04.408Z,101115.00
2023-02-09T01:37:34.602Z,101122.16
2023-02-09T01:40:01.620Z,101111.91
2023-02-09T01:42:29.322Z,101108.59
2023-02-09T01:45:21.302Z,101104.63
2023-02-09T01:47:57.839Z,101100.41
2023-02-09T01:50:27.150Z,101101.53
2023-02-09T01:52:54.707Z,101104.28
2023-02-09T01:55:27.010Z,101106.81
2023-02-09T01:57:59.587Z,101115.47
2023-02-09T02:00:26.633Z,101109.91
2023-02-09T02:02:57.752Z,101108.38
2023-02-09T02:05:26.235Z,101115.47
2023-02-09T02:08:01.111Z,101108.03
2023-02-09T02:10:29.273Z,101101.97
2023-02-09T02:12:57.362Z,101112.13
2023-02-09T02:15:29.873Z,101105.50
2023-02-09T02:18:08.231Z,101106.81
2023-02-09T02:20:40.935Z,101111.91
2023-02-09T02:23:21.403Z,101116.44
2023-02-09T02:26:19.078Z,101117.53
2023-02-09T02:29:12.258Z,101117.44
2023-02-09T02:31:54.154Z,101123.38
2023-02-09T02:34:25.572Z,101123.16
2023-02-09T02:37:23.226Z,101127.81
2023-02-09T02:39:54.343Z,101127.59
2023-02-09T02:42:48.756Z,101125.81
2023-02-09T02:45:18.176Z,101114.09
2023-02-09T02:47:53.590Z,101116.09
2023-02-09T02:50:26.998Z,101120.38
2023-02-09T02:52:57.433Z,101117.22
2023-02-09T02:55:28.460Z,101118.94
2023-02-09T02:58:00.962Z,101123.38
2023-02-09T03:00:56.700Z,101113.41
2023-02-09T03:03:30.074Z,101120.06
2023-02-09T03:05:58.386Z,101109.91
2023-02-09T03:08:25.231Z,101107.34
2023-02-09T03:10:52.135Z,101108.34
2023-02-09T03:13:38.524Z,101115.63
2023-02-09T03:16:18.061Z,101108.09
2023-02-09T03:19:12.454Z,101107.47
2023-02-09T03:21:51.477Z,101109.22
2023-02-09T03:25:01.049Z,101115.50
2023-02-09T03:27:35.155Z,101102.56
2023-02-09T03:30:04.398Z,101105.13
2023-02-09T03:32:36.800Z,101109.22
2023-02-09T03:35:04.545Z,101108.44
2023-02-09T03:37:31.471Z,101110.00
2023-02-09T03:39:58.191Z,101097.50
2023-02-09T03:42:24.957Z,101105.22
2023-02-09T03:44:51.683Z,101110.19
2023-02-09T03:47:18.455Z,101111.84
2023-02-09T03:49:45.592Z,101113.53
2023-02-09T03:52:14.223Z,101114.50
2023-02-09T03:54:41.268Z,101116.06
2023-02-09T03:57:09.067Z,101112.72
2023-02-09T03:59:37.792Z,101097.50
2023-02-09T04:02:07.308Z,101090.97
2023-02-09T04:04:34.917Z,101094.19
2023-02-09T04:07:01.836Z,101091.66
2023-02-09T04:09:29.326Z,101093.44
2023-02-09T04:11:56.312Z,101101.25
2023-02-09T04:14:23.225Z,101105.56
2023-02-09T04:16:50.154Z,101099.69
2023-02-09T04:19:16.986Z,101099.69
2023-02-09T04:21:43.800Z,101099.91
2023-02-09T04:24:10.688Z,101095.81
2023-02-09T04:26:37.538Z,101093.25
2023-02-09T04:29:06.244Z,101093.94
2023-02-09T04:31:33.180Z,101094.81
2023-02-09T04:33:59.936Z,101096.78
2023-02-09T04:36:26.688Z,101091.16
2023-02-09T04:38:53.523Z,101087.06
2023-02-09T04:41:20.440Z,101078.47
2023-02-09T04:43:47.593Z,101091.72
2023-02-09T04:46:16.518Z,101097.13
2023-02-09T04:48:44.100Z,101097.66
2023-02-09T04:51:10.813Z,101101.63
2023-02-09T04:53:37.949Z,101092.44
2023-02-09T04:56:05.385Z,101087.06
2023-02-09T04:58:50.913Z,101087.53
2023-02-09T05:01:21.666Z,101089.75
2023-02-09T05:03:48.659Z,101086.00
2023-02-09T05:06:15.932Z,101091.31
2023-02-09T05:08:42.843Z,101092.19
2023-02-09T05:11:09.620Z,101092.41
2023-02-09T05:13:36.792Z,101086.63
2023-02-09T05:16:13.675Z,101086.28
2023-02-09T05:18:40.582Z,101080.44
2023-02-09T05:21:07.345Z,101081.41
2023-02-09T05:23:34.131Z,101079.09
2023-02-09T05:26:00.904Z,101081.28
2023-02-09T05:28:27.830Z,101091.66
2023-02-09T05:30:54.797Z,101083.44
2023-02-09T05:33:22.848Z,101086.88
2023-02-09T05:35:51.491Z,101088.53
2023-02-09T05:38:19.199Z,101093.19
2023-02-09T05:40:46.546Z,101095.66
2023-02-09T05:43:13.478Z,101098.09
2023-02-09T05:45:40.262Z,101087.13
2023-02-09T05:48:07.246Z,101078.63
2023-02-09T05:50:35.695Z,101085.91
2023-02-09T05:53:02.468Z,101086.03
2023-02-09T05:55:29.254Z,101093.19
2023-02-09T05:57:56.123Z,101089.19
2023-02-09T06:00:25.085Z,101092.63
2023-02-09T06:02:52.104Z,101091.66
2023-02-09T06:05:20.976Z,101091.66
2023-02-09T06:07:49.001Z,101093.63
2023-02-09T06:10:17.612Z,101088.75
2023-02-09T06:12:44.607Z,101085.53
2023-02-09T06:15:11.858Z,101082.28
2023-02-09T06:17:38.652Z,101083.84
2023-02-09T06:20:06.233Z,101091.38
2023-02-09T06:22:33.046Z,101082.28
2023-02-09T06:25:00.173Z,101077.31
2023-02-09T06:27:27.023Z,101064.50
2023-02-09T06:29:53.951Z,101067.72
2023-02-09T06:32:20.718Z,101082.50
2023-02-09T06:34:47.668Z,101075.13
2023-02-09T06:37:14.656Z,101082.34
2023-02-09T06:39:41.465Z,101076.63
2023-02-09T06:42:08.201Z,101060.03
2023-02-09T06:44:35.041Z,101056.69
2023-02-09T06:47:01.815Z,101064.94
2023-02-09T06:49:28.581Z,101079.03
2023-02-09T06:51:55.495Z,101069.84
2023-02-09T06:54:22.766Z,101074.50
2023-02-09T06:56:49.584Z,101077.66
2023-02-09T06:59:16.482Z,101068.09
2023-02-09T07:01:43.286Z,101076.78
2023-02-09T07:04:10.117Z,101071.81
2023-02-09T07:06:36.943Z,101081.19
2023-02-09T07:09:03.886Z,101073.56
2023-02-09T07:11:30.685Z,101070.53
2023-02-09T07:13:57.670Z,101065.63
2023-02-09T07:16:24.512Z,101074.28
2023-02-09T07:18:51.343Z,101074.84
2023-02-09T07:21:21.448Z,101067.28
2023-02-09T07:23:48.615Z,101069.34
2023-02-09T07:26:17.083Z,101075.53
2023-02-09T07:28:44.442Z,101074.16
2023-02-09T07:31:14.719Z,101070.34
2023-02-09T07:33:41.935Z,101070.13
2023-02-09T07:36:11.489Z,101073.09
2023-02-09T07:38:39.086Z,101072.50
2023-02-09T07:41:07.572Z,101065.25
2023-02-09T07:43:35.130Z,101066.22
2023-02-09T07:46:06.893Z,101063.81
2023-02-09T07:48:34.608Z,101061.88
2023-02-09T07:51:01.507Z,101060.63
2023-02-09T07:53:28.755Z,101053.63
2023-02-09T07:55:55.696Z,101052.69
2023-02-09T07:58:22.763Z,101058.38
2023-02-09T08:00:51.027Z,101060.88
2023-02-09T08:03:20.981Z,101066.44
2023-02-09T08:05:48.189Z,101062.78
2023-02-09T08:08:15.116Z,101055.53
2023-02-09T08:10:42.554Z,101056.09
2023-02-09T08:13:09.786Z,101056.44
2023-02-09T08:15:51.562Z,101067.38
2023-02-09T08:18:23.001Z,101064.06
2023-02-09T08:20:52.381Z,101066.34
2023-02-09T08:23:25.651Z,101065.56
2023-02-09T08:25:52.908Z,101063.38
2023-02-09T08:28:20.645Z,101059.84
2023-02-09T08:30:48.597Z,101054.22
2023-02-09T08:33:16.092Z,101062.50
2023-02-09T08:35:43.699Z,101061.63
2023-02-09T08:38:10.822Z,101057.53
2023-02-09T08:40:41.424Z,101063.78
2023-02-09T08:43:08.645Z,101065.66
2023-02-09T08:45:40.003Z,101062.88
2023-02-09T08:48:09.567Z,101066.22
2023-02-09T08:50:37.542Z,101062.34
2023-02-09T08:53:05.458Z,101061.28
2023-02-09T08:55:33.844Z,101063.75
2023-02-09T08:58:00.826Z,101063.78
2023-02-09T09:00:27.731Z,101048.75
2023-02-09T09:02:54.558Z,101052.09
2023-02-09T09:05:21.277Z,101054.72
2023-02-09T09:07:48.267Z,101062.63
2023-02-09T09:10:15.160Z,101051.66
2023-02-09T09:12:41.913Z,101050.25
2023-02-09T09:15:09.074Z,101046.56
2023-02-09T09:17:35.998Z,101048.16
2023-02-09T09:20:02.819Z,101045.34
2023-02-09T09:22:30.730Z,101042.81
2023-02-09T09:24:57.585Z,101041.75
2023-02-09T09:27:26.882Z,101041.66
2023-02-09T09:29:54.418Z,101048.28
2023-02-09T09:32:24.833Z,101050.31
2023-02-09T09:34:56.181Z,101052.31
2023-02-09T09:37:23.965Z,101047.84
2023-02-09T09:39:51.046Z,101042.81
2023-02-09T09:42:43.404Z,101041.91
2023-02-09T09:45:16.191Z,101043.78
2023-02-09T09:47:44.778Z,101039.88
2023-02-09T09:50:27.375Z,101035.38
2023-02-09T09:53:17.979Z,101025.63
2023-02-09T09:55:46.335Z,101020.28
2023-02-09T09:58:18.904Z,101024.34
2023-02-09T10:00:45.971Z,101027.50
2023-02-09T10:03:18.179Z,101025.41
2023-02-09T10:05:48.305Z,101020.97
2023-02-09T10:08:43.226Z,101023.97
2023-02-09T10:11:20.175Z,101016.06
2023-02-09T10:13:52.336Z,101017.09
2023-02-09T10:16:28.190Z,101015.59
2023-02-09T10:18:57.782Z,101013.41
2023-02-09T10:21:28.066Z,101012.53
2023-02-09T10:24:00.743Z,101014.09
2023-02-09T10:26:40.085Z,101004.38
2023-02-09T10:29:13.086Z,101003.56
2023-02-09T10:31:47.609Z,101001.16
2023-02-09T10:34:19.846Z,101006.38
2023-02-09T10:37:15.850Z,101001.97
2023-02-09T10:39:43.275Z,101004.53
2023-02-09T10:42:24.508Z,101001.63
2023-02-09T10:44:57.195Z,100994.41
2023-02-09T10:47:27.298Z,100995.47
2023-02-09T10:50:00.272Z,100990.09
2023-02-09T10:52:35.583Z,100989.50
2023-02-09T10:55:16.270Z,100988.94
2023-02-09T10:57:43.064Z,100988.34
2023-02-09T11:00:15.656Z,100979.97
2023-02-09T11:02:51.860Z,100981.19
2023-02-09T11:05:21.484Z,100980.81
2023-02-09T11:08:03.384Z,100971.66
2023-02-09T11:10:32.258Z,100976.38
2023-02-09T11:13:00.333Z,100978.50
2023-02-09T11:15:33.423Z,100972.19
2023-02-09T11:18:08.619Z,100967.81
2023-02-09T11:21:11.582Z,100969.13
2023-02-09T11:23:47.579Z,100973.47
2023-02-09T11:26:30.588Z,100977.16
2023-02-09T11:29:07.177Z,100974.84
2023-02-09T11:31:49.668Z,100966.56
2023-02-09T11:34:31.614Z,100960.41
2023-02-09T11:37:13.041Z,100957.63
2023-02-09T11:39:52.302Z,100962.44
2023-02-09T11:42:46.346Z,100959.88
2023-02-09T11:45:37.442Z,100963.38
2023-02-09T11:48:32.307Z,100967.09
2023-02-09T11:50:59.358Z,100968.50
2023-02-09T11:54:03.928Z,100965.84
2023-02-09T11:56:40.425Z,100964.63
2023-02-09T11:59:38.431Z,100963.19
2023-02-09T12:02:37.581Z,100964.78
2023-02-09T12:05:05.434Z,100966.38
2023-02-09T12:07:42.459Z,100958.09
2023-02-09T12:10:18.089Z,100964.63
2023-02-09T12:12:57.350Z,100960.41
2023-02-09T12:15:37.957Z,100953.00
2023-02-09T12:18:12.904Z,100960.06
2023-02-09T12:20:56.362Z,100952.50
2023-02-09T12:23:34.863Z,100954.97
2023-02-09T12:26:22.655Z,100959.13
2023-02-09T12:29:04.584Z,100955.09
2023-02-09T12:31:52.192Z,100954.75
2023-02-09T12:34:29.076Z,100961.78
2023-02-09T12:37:14.322Z,100960.09
2023-02-09T12:40:18.587Z,100965.81
2023-02-09T12:43:06.905Z,100962.72
2023-02-09T12:45:41.860Z,100956.66
2023-02-09T12:48:08.625Z,100958.03
2023-02-09T12:50:35.419Z,100955.50
2023-02-09T12:53:31.718Z,100950.94
2023-02-09T12:55:59.609Z,100947.84
2023-02-09T12:58:55.719Z,100950.75
2023-02-09T13:01:42.438Z,100946.38
2023-02-09T13:04:09.758Z,100948.09
2023-02-09T13:06:49.117Z,100954.75
2023-02-09T13:09:48.928Z,100944.91
2023-02-09T13:12:23.110Z,100949.28
2023-02-09T13:14:50.961Z,100946.28
2023-02-09T13:17:40.318Z,100939.78
2023-02-09T13:20:29.538Z,100940.97
2023-02-09T13:22:59.193Z,100945.31
2023-02-09T13:25:37.465Z,100939.88
2023-02-09T13:28:15.777Z,100934.06
2023-02-09T13:30:43.278Z,100932.03
2023-02-09T13:33:27.240Z,100940.06
2023-02-09T13:36:00.164Z,100934.59
2023-02-09T13:38:33.347Z,100928.81
2023-02-09T13:41:00.820Z,100930.81
2023-02-09T13:43:31.733Z,100924.22
2023-02-09T13:46:01.488Z,100924.41
2023-02-09T13:48:32.282Z,100933.00
2023-02-09T13:51:23.688Z,100926.28
2023-02-09T13:54:01.206Z,100922.66
2023-02-09T13:56:36.925Z,100922.47
2023-02-09T13:59:04.114Z,100913.25
2023-02-09T14:01:38.794Z,100916.19
2023-02-09T14:04:17.217Z,100912.16
2023-02-09T14:06:58.515Z,100911.25
2023-02-09T14:09:31.482Z,100919.09
2023-02-09T14:12:06.193Z,100914.59
2023-02-09T14:15:14.295Z,100913.03
2023-02-09T14:17:50.677Z,100909.50
2023-02-09T14:20:21.685Z,100904.22
2023-02-09T14:23:01.810Z,100902.94
2023-02-09T14:25:30.488Z,100898.50
2023-02-09T14:27:58.359Z,100902.84
2023-02-09T14:30:29.942Z,100903.03
2023-02-09T14:33:01.049Z,100898.91
2023-02-09T14:35:30.774Z,100892.13
2023-02-09T14:38:00.589Z,100897.13
2023-02-09T14:40:31.696Z,100890.28
2023-02-09T14:43:27.789Z,100893.38
2023-02-09T14:46:02.797Z,100887.91
2023-02-09T14:48:31.354Z,100877.38
2023-02-09T14:51:10.772Z,100890.34
2023-02-09T14:53:42.641Z,100885.78
2023-02-09T14:56:24.609Z,100882.81
2023-02-09T14:58:51.431Z,100880.34
2023-02-09T15:01:18.396Z,100874.06
2023-02-09T15:03:45.205Z,100872.25
2023-02-09T15:06:17.768Z,100874.69
2023-02-09T15:08:46.920Z,100873.44
2023-02-09T15:11:43.061Z,100871.94
2023-02-09T15:14:14.221Z,100869.19
2023-02-09T15:16:41.126Z,100879.38
2023-02-09T15:22:06.958Z,100861.22
2023-02-09T15:24:36.282Z,100865.34
2023-02-09T15:27:03.281Z,100872.97
2023-02-09T15:29:30.722Z,100867.78
2023-02-09T15:31:59.390Z,100866.72
2023-02-09T15:34:28.226Z,100860.75
2023-02-09T15:36:58.217Z,100868.09
2023-02-09T15:39:25.802Z,100867.22
2023-02-09T15:42:11.207Z,100863.00
2023-02-09T15:44:56.368Z,100866.31
2023-02-09T15:47:44.640Z,100859.50
2023-02-09T15:50:11.441Z,100864.56
2023-02-09T15:52:41.204Z,100868.69
2023-02-09T15:55:08.344Z,100866.31
2023-02-09T15:57:36.904Z,100853.59
2023-02-09T16:00:15.271Z,100859.69
2023-02-09T16:02:42.058Z,100855.97
2023-02-09T16:05:08.833Z,100855.06
2023-02-09T16:07:37.340Z,100854.19
2023-02-09T16:10:08.327Z,100858.53
2023-02-09T16:12:38.222Z,100858.69
2023-02-09T16:15:16.300Z,100856.44
2023-02-09T16:17:43.125Z,100856.34
2023-02-09T16:20:10.732Z,100853.53
2023-02-09T16:22:42.516Z,100852.63
2023-02-09T16:25:28.494Z,100846.16
2023-02-09T16:28:03.882Z,100841.47
2023-02-09T16:30:34.864Z,100847.38
2023-02-09T16:33:04.403Z,100842.28
2023-02-09T16:35:34.793Z,100845.78
2023-02-09T16:38:04.146Z,100837.19
2023-02-09T16:40:33.226Z,100845.28
2023-02-09T16:43:03.761Z,100839.31
2023-02-09T16:45:37.735Z,100834.22
2023-02-09T16:48:05.206Z,100832.47
2023-02-09T16:50:35.648Z,100834.22
2023-02-09T16:53:15.516Z,100833.22
2023-02-09T16:55:43.593Z,100830.69
2023-02-09T16:58:13.929Z,100827.38
2023-02-09T17:00:43.974Z,100828.94
2023-02-09T17:03:38.834Z,100829.31
2023-02-09T17:06:06.667Z,100823.66
2023-02-09T17:08:42.578Z,100820.84
2023-02-09T17:11:17.049Z,100817.41
2023-02-09T17:13:44.136Z,100814.75
2023-02-09T17:16:20.291Z,100822.09
2023-02-09T17:18:58.138Z,100820.16
2023-02-09T17:21:30.080Z,100814.88
2023-02-09T17:23:59.869Z,100820.16
2023-02-09T17:26:27.090Z,100806.25
2023-02-09T17:28:54.221Z,100803.53
2023-02-09T17:31:29.980Z,100799.59
2023-02-09T17:34:00.898Z,100799.41
2023-02-09T17:36:31.262Z,100799.41
2023-02-09T17:39:01.753Z,100793.44
2023-02-09T17:41:47.664Z,100791.00
2023-02-09T17:44:26.385Z,100786.41
2023-02-09T17:46:58.881Z,100785.72
2023-02-09T17:49:32.576Z,100785.53
2023-02-09T17:52:00.889Z,100786.13
2023-02-09T17:54:27.928Z,100783.47
2023-02-09T17:56:54.791Z,100786.94
2023-02-09T17:59:21.680Z,100791.91
2023-02-09T18:02:05.272Z,100784.28
2023-02-09T18:04:33.443Z,100780.88
2023-02-09T18:07:00.272Z,100775.78
2023-02-09T18:09:28.795Z,100774.19
2023-02-09T18:11:59.710Z,100765.00
2023-02-09T18:14:27.602Z,100765.66
2023-02-09T18:16:55.281Z,100752.06
2023-02-09T18:19:23.635Z,100767.94
2023-02-09T18:21:59.312Z,100754.81
2023-02-09T18:24:29.698Z,100757.06
2023-02-09T18:27:03.009Z,100763.53
2023-02-09T18:29:30.157Z,100750.56
2023-02-09T18:32:01.856Z,100755.66
2023-02-09T18:34:29.234Z,100750.16
2023-02-09T18:36:56.134Z,100745.09
2023-02-09T18:39:22.991Z,100748.63
2023-02-09T18:41:55.919Z,100751.22
2023-02-09T18:47:17.567Z,100740.00
2023-02-09T18:49:44.459Z,100733.16
2023-02-09T18:52:17.038Z,100733.44
2023-02-09T18:54:43.922Z,100727.22
2023-02-09T18:57:11.439Z,100722.13
2023-02-09T18:59:41.094Z,100721.41
2023-02-09T19:02:11.529Z,100726.50
2023-02-09T19:04:38.765Z,100709.47
2023-02-09T19:07:10.092Z,100709.47
2023-02-09T19:09:41.131Z,100709.31
2023-02-09T19:12:08.030Z,100714.19
2023-02-09T19:14:44.255Z,100714.75
2023-02-09T19:17:19.416Z,100706.16
2023-02-09T19:19:46.492Z,100705.97
2023-02-09T19:22:16.747Z,100702.44
2023-02-09T19:24:43.743Z,100697.97
2023-02-09T19:27:13.378Z,100692.69
2023-02-09T19:29:41.404Z,100695.25
2023-02-09T19:32:08.692Z,100685.56
2023-02-09T19:34:38.739Z,100695.66
2023-02-09T19:37:07.283Z,100686.44
2023-02-09T19:39:38.730Z,100689.97
2023-02-09T19:42:06.238Z,100693.50
2023-02-09T19:44:34.709Z,100689.25
2023-02-09T19:47:01.562Z,100689.81
2023-02-09T19:49:28.727Z,100679.53
2023-02-09T19:51:55.490Z,100668.69
2023-02-09T19:54:22.496Z,100688.66
2023-02-09T19:56:49.323Z,100671.66
2023-02-09T19:59:18.460Z,100665.88
2023-02-09T20:01:45.522Z,100674.19
2023-02-09T20:04:12.322Z,100658.34
2023-02-09T20:06:39.065Z,100661.75
2023-02-09T20:09:07.023Z,100656.75
2023-02-09T20:11:33.964Z,100648.59
2023-02-09T20:16:33.377Z,100646.13
2023-02-09T20:19:00.641Z,100649.75
2023-02-09T20:21:27.468Z,100642.13
2023-02-09T20:23:56.106Z,100639.38
2023-02-09T20:26:28.978Z,100646.22
2023-02-09T20:28:59.211Z,100637.44
2023-02-09T20:31:28.425Z,100632.38
2023-02-09T20:33:55.397Z,100630.03
2023-02-09T20:36:24.481Z,100636.06
2023-02-09T20:38:52.181Z,100627.47
2023-02-09T20:41:19.593Z,100634.91
2023-02-09T20:44:05.001Z,100625.59
2023-02-09T20:46:52.051Z,100622.50
2023-02-09T20:49:19.570Z,100630.13
2023-02-09T20:51:46.769Z,100630.97
2023-02-09T20:54:14.138Z,100629.06
2023-02-09T20:56:41.303Z,100632.78
2023-02-09T20:59:08.774Z,100633.53
2023-02-09T21:01:39.517Z,100621.75
2023-02-09T21:04:07.830Z,100619.09
2023-02-09T21:06:39.713Z,100613.41
2023-02-09T21:09:08.541Z,100622.97
2023-02-09T21:11:35.406Z,100615.00
2023-02-09T21:14:03.087Z,100614.22
2023-02-09T21:16:30.890Z,100608.13
2023-02-09T21:18:58.339Z,100593.06
2023-02-09T21:21:27.065Z,100598.88
2023-02-09T21:23:54.446Z,100592.13
2023-02-09T21:26:25.163Z,100593.94
2023-02-09T21:28:56.399Z,100587.38
2023-02-09T21:31:26.897Z,100582.25
2023-02-09T21:33:54.013Z,100581.34
2023-02-09T21:36:20.808Z,100577.16
2023-02-09T21:38:47.659Z,100573.56
2023-02-09T21:41:36.698Z,100572.75
2023-02-09T21:44:04.425Z,100565.94
2023-02-09T21:46:31.279Z,100565.13
2023-02-09T21:48:58.032Z,100559.28
2023-02-09T21:51:25.239Z,100553.22
2023-02-09T21:53:52.229Z,100554.00
2023-02-09T21:56:19.326Z,100548.91
2023-02-09T21:58:47.369Z,100545.75
2023-02-09T22:01:14.384Z,100549.09
2023-02-09T22:03:44.226Z,100551.75
2023-02-09T22:06:11.534Z,100550.69
2023-02-09T22:08:38.272Z,100543.84
2023-02-09T22:11:08.676Z,100540.50
2023-02-09T22:13:35.611Z,100531.91
2023-02-09T22:16:06.445Z,100536.97
2023-02-09T22:18:34.345Z,100521.72
2023-02-09T22:21:01.106Z,100526.81
2023-02-09T22:23:28.412Z,100519.13
2023-02-09T22:26:02.617Z,100518.41
2023-02-09T22:28:29.908Z,100513.16
2023-02-09T22:30:57.049Z,100509.84
2023-02-09T22:33:24.253Z,100514.31
2023-02-09T22:35:50.994Z,100501.50
2023-02-09T22:38:17.806Z,100508.06
2023-02-09T22:40:44.563Z,100502.31
2023-02-09T22:43:11.281Z,100492.66
2023-02-09T22:45:38.117Z,100488.44
2023-02-09T22:48:05.254Z,100478.09
2023-02-09T22:50:32.444Z,100478.81
2023-02-09T22:52:59.165Z,100476.25
2023-02-09T22:55:26.294Z,100478.91
2023-02-09T22:57:53.513Z,100480.53
2023-02-09T23:00:20.535Z,100474.25
2023-02-09T23:02:47.342Z,100471.00
2023-02-09T23:05:14.097Z,100461.59
2023-02-09T23:07:41.650Z,100458.38
2023-02-09T23:10:08.932Z,100450.84
2023-02-09T23:12:35.673Z,100451.44
2023-02-09T23:15:02.465Z,100456.50
2023-02-09T23:17:32.964Z,100455.22
2023-02-09T23:19:59.709Z,100438.09
2023-02-09T23:22:26.552Z,100446.34
2023-02-09T23:24:54.962Z,100443.69
2023-02-09T23:27:21.715Z,100442.13
2023-02-09T23:29:48.742Z,100434.69
2023-02-09T23:32:15.428Z,100413.69
2023-02-09T23:34:42.306Z,100420.59
2023-02-09T23:37:18.389Z,100433.91
2023-02-09T23:39:50.470Z,100432.59
2023-02-09T23:42:17.243Z,100416.19
2023-02-09T23:44:44.059Z,100412.69
2023-02-09T23:47:10.770Z,100418.56
2023-02-09T23:49:37.528Z,100411.19
2023-02-09T23:52:04.324Z,100397.53
2023-02-09T23:54:31.094Z,100393.22
2023-02-09T23:56:57.842Z,100396.72
2023-02-09T23:59:24.593Z,100398.28
